Time;durP1;ratioP1;P1;durP2;ratioP2;P2;SDS_P1;SDS_P2;PMS_P1;PMS_P2;Temp;Humidity;BMP_temperature;BMP_pressure;BME280_temperature;BME280_humidity;BME280_pressure;Samples;Min_cycle;Max_cycle;Signal;HPM_P1;HPM_P2
2022/11/11 00:00:18;;;;;;;21.35;8.68;;;11.60;99.90;;;;;;4993941;28;20050;-79
2022/11/11 00:02:44;;;;;;;15.07;8.35;;;11.60;99.90;;;;;;4992168;28;20050;-79
2022/11/11 00:05:09;;;;;;;21.17;9.20;;;11.60;99.90;;;;;;4993841;28;20104;-79
2022/11/11 00:07:35;;;;;;;17.80;9.30;;;11.50;99.90;;;;;;4977179;28;20042;-78
2022/11/11 00:10:01;;;;;;;20.38;10.00;;;11.50;99.90;;;;;;4983842;28;20501;-79
2022/11/11 00:12:26;;;;;;;21.75;9.85;;;11.50;99.90;;;;;;4973366;28;20489;-79
2022/11/11 00:14:52;;;;;;;19.38;9.90;;;11.50;99.90;;;;;;4956535;28;20433;-79
2022/11/11 00:25:32;;;;;;;26.20;9.43;;;11.50;99.90;;;;;;4952878;28;20055;-79
2022/11/11 00:27:58;;;;;;;17.52;9.48;;;11.50;99.90;;;;;;4957172;28;20109;-78
2022/11/11 00:30:23;;;;;;;18.90;9.82;;;11.40;99.90;;;;;;4973872;28;20470;-80
2022/11/11 00:32:49;;;;;;;25.05;11.00;;;11.50;99.90;;;;;;4975395;28;20073;-78
2022/11/11 00:38:10;;;;;;;21.60;10.15;;;11.40;99.90;;;;;;4977675;28;20065;-80
2022/11/11 00:40:36;;;;;;;21.10;11.48;;;11.50;99.90;;;;;;4992867;28;20425;-79
2022/11/11 00:43:01;;;;;;;24.55;11.27;;;11.40;99.90;;;;;;4992169;28;20042;-78
2022/11/11 00:45:27;;;;;;;23.00;10.50;;;11.50;99.90;;;;;;4993149;28;20046;-79
2022/11/11 00:53:26;;;;;;;22.00;10.80;;;11.40;99.90;;;;;;4991784;28;20100;-78
2022/11/11 00:55:52;;;;;;;22.63;11.00;;;11.40;99.90;;;;;;4970751;28;20120;-78
2022/11/11 00:58:18;;;;;;;26.20;11.43;;;11.40;99.90;;;;;;4973411;28;20104;-80
2022/11/11 01:00:44;;;;;;;26.80;12.23;;;11.40;99.90;;;;;;4992877;28;20050;-78
2022/11/11 01:03:10;;;;;;;28.30;11.63;;;11.40;99.90;;;;;;4991818;28;20052;-78
2022/11/11 01:05:38;;;;;;;19.38;11.63;;;11.40;99.90;;;;;;4991056;28;20133;-79
2022/11/11 01:08:04;;;;;;;24.10;11.77;;;11.40;99.90;;;;;;4974976;28;20472;-78
2022/11/11 01:10:43;;;;;;;24.27;12.00;;;11.40;99.90;;;;;;4977531;28;20121;-78
2022/11/11 01:13:18;;;;;;;22.67;11.50;;;11.50;99.90;;;;;;4972095;28;20539;-79
2022/11/11 01:15:47;;;;;;;27.15;11.07;;;11.50;99.90;;;;;;4973272;28;20050;-79
2022/11/11 01:18:15;;;;;;;25.05;11.07;;;11.40;99.90;;;;;;4957028;28;20489;-79
2022/11/11 01:20:41;;;;;;;20.45;11.27;;;11.40;99.90;;;;;;4984343;28;20402;-78
2022/11/11 01:23:08;;;;;;;25.35;12.00;;;11.40;99.90;;;;;;4991298;28;20513;-78
2022/11/11 01:25:38;;;;;;;23.13;11.25;;;11.40;99.90;;;;;;4976080;28;20121;-79
2022/11/11 01:28:05;;;;;;;20.23;10.48;;;11.40;99.90;;;;;;4956255;28;20424;-79
2022/11/11 01:30:32;;;;;;;24.58;11.73;;;11.40;99.90;;;;;;4972714;28;20134;-78
2022/11/11 01:32:59;;;;;;;23.42;11.27;;;11.50;99.90;;;;;;4971260;28;20436;-79
2022/11/11 01:35:24;;;;;;;23.33;11.82;;;11.50;99.90;;;;;;4975926;28;20074;-79
2022/11/11 01:37:50;;;;;;;20.90;11.15;;;11.40;99.90;;;;;;4973270;28;20042;-79
2022/11/11 01:40:16;;;;;;;24.20;11.73;;;11.50;99.90;;;;;;4991539;28;20457;-79
2022/11/11 01:42:53;;;;;;;23.08;11.45;;;11.50;99.90;;;;;;4991371;28;20042;-78
2022/11/11 01:46:00;;;;;;;27.05;12.90;;;11.40;99.90;;;;;;4992052;28;20046;-78
2022/11/11 01:51:44;;;;;;;22.45;11.77;;;11.50;99.90;;;;;;4991281;28;20061;-78
2022/11/11 01:54:23;;;;;;;26.60;11.90;;;11.50;99.90;;;;;;4991045;28;20578;-78
2022/11/11 01:56:58;;;;;;;24.90;11.60;;;11.50;99.90;;;;;;4976194;28;20527;-78
2022/11/11 01:59:24;;;;;;;22.55;11.88;;;11.40;99.90;;;;;;4972226;28;20058;-79
2022/11/11 02:01:49;;;;;;;19.92;11.63;;;11.50;99.90;;;;;;4990756;28;20112;-78
2022/11/11 02:07:06;;;;;;;22.67;11.88;;;11.50;99.90;;;;;;4976272;28;20058;-79
2022/11/11 02:09:32;;;;;;;23.45;10.77;;;11.50;99.90;;;;;;4990209;28;20100;-79
2022/11/11 02:14:50;;;;;;;22.65;11.43;;;11.50;99.90;;;;;;4990728;28;20423;-78
2022/11/11 02:17:16;;;;;;;24.45;12.18;;;11.50;99.90;;;;;;4975159;28;20042;-78
2022/11/11 02:19:52;;;;;;;18.08;10.77;;;11.50;99.90;;;;;;4986893;28;20047;-79
2022/11/11 02:22:47;;;;;;;24.10;12.80;;;11.50;99.90;;;;;;4970790;28;20050;-78
2022/11/11 02:25:17;;;;;;;22.45;12.10;;;11.50;99.90;;;;;;4984026;28;20121;-78
2022/11/11 02:27:48;;;;;;;26.27;11.90;;;11.50;99.90;;;;;;4957244;28;20463;-78
2022/11/11 02:30:15;;;;;;;24.40;12.20;;;11.50;99.90;;;;;;4990347;28;20054;-79
2022/11/11 02:32:47;;;;;;;26.70;12.68;;;11.50;99.90;;;;;;4971746;28;20097;-79
2022/11/11 02:35:23;;;;;;;;;;;11.40;99.90;;;;;;4986071;28;20047;-79
2022/11/11 02:37:52;;;;;;;28.33;12.73;;;11.40;99.90;;;;;;4975724;28;20008;-79
2022/11/11 02:40:32;;;;;;;25.17;12.90;;;11.40;99.90;;;;;;4990524;28;20050;-80
2022/11/11 02:42:58;;;;;;;22.05;12.40;;;11.40;99.90;;;;;;4970692;28;20047;-79
2022/11/11 02:45:24;;;;;;;29.48;14.32;;;11.50;99.90;;;;;;4971543;28;20069;-79
2022/11/11 02:47:49;;;;;;;22.95;12.57;;;11.40;99.90;;;;;;4922294;28;20051;-78
2022/11/11 02:50:15;;;;;;;23.65;12.20;;;11.40;99.90;;;;;;4974237;28;20049;-79
2022/11/11 02:52:41;;;;;;;27.33;12.85;;;11.40;99.90;;;;;;4956216;28;20056;-79
2022/11/11 02:55:07;;;;;;;28.40;14.20;;;11.40;99.90;;;;;;4990480;28;20113;-80
2022/11/11 02:57:34;;;;;;;27.25;14.32;;;11.40;99.90;;;;;;4974331;28;20630;-79
2022/11/11 03:00:01;;;;;;;25.10;14.13;;;11.40;99.90;;;;;;4990739;28;20047;-78
2022/11/11 03:02:27;;;;;;;30.95;15.40;;;11.30;99.90;;;;;;4989312;28;20042;-78
2022/11/11 03:04:54;;;;;;;23.92;15.05;;;11.30;99.90;;;;;;4973104;28;20053;-78
2022/11/11 03:07:20;;;;;;;30.85;15.88;;;11.40;99.90;;;;;;4974318;28;20047;-78
2022/11/11 03:09:45;;;;;;;27.33;16.98;;;11.20;99.90;;;;;;4983419;28;20070;-79
2022/11/11 03:12:11;;;;;;;25.42;15.38;;;11.10;99.90;;;;;;4969987;28;20097;-78
2022/11/11 03:14:37;;;;;;;31.25;17.15;;;11.20;99.90;;;;;;4971043;28;20051;-78
2022/11/11 03:19:46;;;;;;;32.10;19.98;;;11.10;99.90;;;;;;4975281;28;20096;-78
2022/11/11 03:22:12;;;;;;;32.28;19.15;;;11.10;99.90;;;;;;4972071;28;20042;-78
2022/11/11 03:27:22;;;;;;;35.53;19.95;;;11.00;99.90;;;;;;4973342;28;20113;-80
2022/11/11 03:29:47;;;;;;;36.88;21.77;;;10.90;99.90;;;;;;4989895;28;20062;-78
2022/11/11 03:32:13;;;;;;;30.27;20.13;;;11.00;99.90;;;;;;4989852;28;20120;-79
2022/11/11 03:34:39;;;;;;;36.00;20.60;;;10.90;99.90;;;;;;4990233;28;20044;-78
2022/11/11 03:39:50;;;;;;;37.33;23.17;;;10.90;99.90;;;;;;4993914;28;20105;-79
2022/11/11 03:42:16;;;;;;;34.27;20.47;;;10.90;99.90;;;;;;4993629;28;20054;-78
2022/11/11 03:44:41;;;;;;;35.92;22.98;;;10.90;99.90;;;;;;4993581;28;20515;-79
2022/11/11 03:47:07;;;;;;;38.93;23.33;;;10.90;99.90;;;;;;4977779;28;20104;-78
2022/11/11 03:49:33;;;;;;;37.35;24.02;;;10.90;99.90;;;;;;4976755;28;20081;-79
2022/11/11 03:51:58;;;;;;;35.53;23.42;;;10.80;99.90;;;;;;4993759;28;20509;-79
2022/11/11 03:54:24;;;;;;;38.03;23.95;;;10.80;99.90;;;;;;4992864;28;20054;-79
2022/11/11 03:56:50;;;;;;;37.27;23.07;;;10.80;99.90;;;;;;4978312;28;20642;-79
2022/11/11 03:59:15;;;;;;;38.10;23.20;;;10.80;99.90;;;;;;4992200;28;20112;-78
2022/11/11 04:18:14;;;;;;;36.00;25.20;;;10.80;99.90;;;;;;4965350;28;20065;-78
2022/11/11 04:23:26;;;;;;;37.75;25.42;;;10.90;99.90;;;;;;4973356;28;20547;-79
2022/11/11 04:25:54;;;;;;;43.65;26.95;;;10.90;99.90;;;;;;4991621;28;20050;-79
2022/11/11 04:31:04;;;;;;;39.58;25.73;;;10.90;99.90;;;;;;4992364;28;20050;-78
2022/11/11 04:33:29;;;;;;;38.80;25.27;;;10.80;99.90;;;;;;4985153;28;20101;-79
2022/11/11 04:35:55;;;;;;;42.17;27.23;;;10.80;99.90;;;;;;4992611;28;20125;-78
2022/11/11 04:41:07;;;;;;;42.03;25.88;;;10.80;99.90;;;;;;4993194;28;20142;-78
2022/11/11 04:45:26;;;;;;;43.40;28.23;;;10.70;99.90;;;;;;4991796;28;20077;-79
2022/11/11 04:46:19;;;;;;;47.03;28.25;;;10.80;99.90;;;;;;4981331;28;20054;-79
2022/11/11 04:48:44;;;;;;;40.00;26.35;;;10.70;99.90;;;;;;4987301;28;20069;-79
2022/11/11 04:51:10;;;;;;;44.37;27.53;;;10.70;99.90;;;;;;4993384;28;20046;-78
2022/11/11 04:53:36;;;;;;;47.97;26.83;;;10.70;99.90;;;;;;4991732;28;20137;-78
2022/11/11 04:58:46;;;;;;;44.75;28.77;;;10.70;99.90;;;;;;4987045;28;20054;-78
2022/11/11 05:03:14;;;;;;;49.60;30.38;;;10.70;99.90;;;;;;4992448;28;20409;-79
2022/11/11 05:03:57;;;;;;;43.50;29.37;;;10.70;99.90;;;;;;4973874;28;20471;-80
2022/11/11 05:09:08;;;;;;;47.10;29.10;;;10.70;99.90;;;;;;4990083;28;20068;-78
2022/11/11 05:11:35;;;;;;;47.93;29.77;;;10.60;99.90;;;;;;4992586;28;20516;-78
2022/11/11 05:22:39;;;;;;;41.22;29.33;;;10.60;99.90;;;;;;4972462;28;20581;-79
2022/11/11 05:25:24;;;;;;;44.65;30.83;;;10.60;99.90;;;;;;4975406;28;20045;-80
2022/11/11 05:27:54;;;;;;;49.77;29.73;;;10.50;99.90;;;;;;4954547;28;20277;-78
2022/11/11 05:30:21;;;;;;;46.53;30.67;;;10.60;99.90;;;;;;4955500;28;20098;-78
2022/11/11 05:32:47;;;;;;;47.73;31.43;;;10.40;99.90;;;;;;4973297;28;20051;-78
2022/11/11 05:35:13;;;;;;;50.80;31.90;;;10.40;99.90;;;;;;4989155;28;20484;-78
2022/11/11 05:37:39;;;;;;;50.30;31.27;;;10.40;99.90;;;;;;4959070;28;20058;-78
2022/11/11 05:40:05;;;;;;;53.90;32.30;;;10.30;99.90;;;;;;4992385;28;20065;-78
2022/11/11 05:42:31;;;;;;;51.47;30.25;;;10.30;99.90;;;;;;4991100;28;20046;-78
2022/11/11 05:44:57;;;;;;;43.00;29.90;;;10.30;99.90;;;;;;4991419;28;20090;-78
2022/11/11 05:47:23;;;;;;;48.40;30.67;;;10.30;99.90;;;;;;4975420;28;20065;-78
2022/11/11 05:49:48;;;;;;;52.53;31.37;;;10.30;99.90;;;;;;4992095;28;20049;-78
2022/11/11 05:52:15;;;;;;;50.93;31.20;;;10.30;99.90;;;;;;4973485;28;20042;-79
2022/11/11 05:54:41;;;;;;;54.13;31.97;;;10.20;99.90;;;;;;4989107;28;20057;-78
2022/11/11 05:57:07;;;;;;;52.47;31.67;;;10.20;99.90;;;;;;4954879;28;20520;-78
2022/11/11 05:59:33;;;;;;;57.83;32.57;;;10.10;99.90;;;;;;4972093;28;20045;-77
2022/11/11 06:01:59;;;;;;;59.00;35.57;;;10.00;99.90;;;;;;4971657;28;20050;-78
2022/11/11 06:04:25;;;;;;;52.30;31.77;;;10.10;99.90;;;;;;4983853;28;20572;-78
2022/11/11 06:06:50;;;;;;;54.93;33.83;;;10.10;99.90;;;;;;4975329;28;20633;-78
2022/11/11 06:09:17;;;;;;;53.30;33.23;;;9.90;99.90;;;;;;4986430;28;20556;-80
2022/11/11 06:11:42;;;;;;;53.60;34.07;;;9.90;99.90;;;;;;4985373;28;20046;-78
2022/11/11 06:14:08;;;;;;;54.57;32.97;;;9.90;99.90;;;;;;4988363;28;20054;-78
2022/11/11 06:16:34;;;;;;;54.67;34.07;;;9.80;99.90;;;;;;4954131;28;20051;-78
2022/11/11 06:19:02;;;;;;;51.57;31.90;;;10.00;99.90;;;;;;4969322;28;20122;-79
2022/11/11 06:21:30;;;;;;;55.10;32.57;;;10.00;99.90;;;;;;4987472;28;20058;-81
2022/11/11 06:23:55;;;;;;;52.03;34.03;;;10.00;99.90;;;;;;4986998;28;20062;-78
2022/11/11 06:26:21;;;;;;;51.17;33.50;;;10.20;99.90;;;;;;4980233;28;20547;-78
2022/11/11 06:28:55;;;;;;;50.87;31.37;;;10.20;99.90;;;;;;4985794;28;20058;-78
2022/11/11 06:31:25;;;;;;;51.43;31.07;;;10.30;99.90;;;;;;4973334;28;20057;-79
2022/11/11 06:33:52;;;;;;;49.47;31.40;;;10.40;99.90;;;;;;4986988;28;20046;-78
2022/11/11 06:36:20;;;;;;;48.37;31.47;;;10.50;99.90;;;;;;4979385;28;20054;-78
2022/11/11 06:38:46;;;;;;;49.07;30.93;;;10.60;99.90;;;;;;4986389;28;20045;-78
2022/11/11 06:41:12;;;;;;;48.87;29.53;;;10.70;99.90;;;;;;4990904;28;20388;-78
2022/11/11 06:43:39;;;;;;;53.17;30.38;;;10.60;99.90;;;;;;4990273;28;20175;-78
2022/11/11 06:46:05;;;;;;;46.43;28.27;;;10.70;99.90;;;;;;4973845;28;20050;-78
2022/11/11 06:48:31;;;;;;;44.83;30.03;;;10.70;99.90;;;;;;4975888;28;20042;-78
2022/11/11 06:51:04;;;;;;;44.92;29.85;;;10.80;99.90;;;;;;4990958;28;20061;-78
2022/11/11 06:53:30;;;;;;;48.17;31.33;;;10.80;99.90;;;;;;4990166;28;20129;-78
2022/11/11 06:55:57;;;;;;;51.00;32.37;;;10.80;99.90;;;;;;4977828;28;20441;-78
2022/11/11 06:58:23;;;;;;;53.27;33.17;;;10.80;99.90;;;;;;4937490;28;20047;-77
2022/11/11 07:00:49;;;;;;;46.90;33.30;;;10.80;99.90;;;;;;4970642;28;20055;-78
2022/11/11 07:03:19;;;;;;;50.83;31.58;;;10.80;99.90;;;;;;4970311;28;20098;-78
2022/11/11 07:05:45;;;;;;;54.07;32.00;;;10.80;99.90;;;;;;4971398;28;20046;-78
2022/11/11 07:08:14;;;;;;;45.42;30.77;;;10.80;99.90;;;;;;4953697;28;20054;-77
2022/11/11 07:10:44;;;;;;;49.60;32.33;;;10.90;99.90;;;;;;4985532;28;20127;-78
2022/11/11 07:13:09;;;;;;;48.58;32.72;;;10.80;99.90;;;;;;4989287;28;20104;-78
2022/11/11 07:15:36;;;;;;;55.38;32.05;;;10.80;99.90;;;;;;4973411;28;20046;-78
2022/11/11 07:18:02;;;;;;;44.08;30.73;;;10.70;99.90;;;;;;4972895;28;20053;-78
2022/11/11 07:20:28;;;;;;;54.78;32.33;;;10.80;99.90;;;;;;4980376;28;20488;-77
2022/11/11 07:22:54;;;;;;;55.83;34.37;;;10.80;99.90;;;;;;4956017;28;20497;-78
2022/11/11 07:25:19;;;;;;;45.37;29.80;;;10.80;99.90;;;;;;4983753;28;20078;-79
2022/11/11 07:27:45;;;;;;;46.40;31.47;;;10.90;99.90;;;;;;4968668;28;20121;-78
2022/11/11 07:30:11;;;;;;;52.07;31.53;;;10.70;99.90;;;;;;4982070;28;20094;-79
2022/11/11 07:32:45;;;;;;;50.90;32.47;;;10.70;99.90;;;;;;4975521;28;20513;-78
2022/11/11 07:35:13;;;;;;;52.95;32.40;;;10.80;99.90;;;;;;4986653;28;20046;-78
2022/11/11 07:37:39;;;;;;;48.40;31.85;;;10.80;99.90;;;;;;4967558;28;20053;-78
2022/11/11 07:40:05;;;;;;;50.42;32.63;;;10.80;99.90;;;;;;4981199;28;20128;-78
2022/11/11 07:42:31;;;;;;;49.37;32.70;;;10.80;99.90;;;;;;4979276;28;20070;-79
2022/11/11 07:44:57;;;;;;;46.70;32.40;;;10.80;99.90;;;;;;4981951;28;20477;-78
2022/11/11 07:47:22;;;;;;;51.40;33.40;;;10.80;99.90;;;;;;4965143;28;20149;-79
2022/11/11 07:49:48;;;;;;;46.93;31.40;;;10.80;99.90;;;;;;4965309;28;20046;-78
2022/11/11 07:52:14;;;;;;;48.67;32.30;;;10.80;99.90;;;;;;4956632;28;20046;-78
2022/11/11 07:54:39;;;;;;;48.40;32.22;;;10.80;99.90;;;;;;4981251;28;22250;-78
2022/11/11 07:57:05;;;;;;;53.65;31.63;;;10.80;99.90;;;;;;4960438;28;20046;-76
2022/11/11 07:59:31;;;;;;;49.00;31.23;;;10.80;99.90;;;;;;4976953;28;20181;-79
2022/11/11 08:01:56;;;;;;;48.87;31.37;;;10.80;99.90;;;;;;4976765;28;20109;-78
2022/11/11 08:04:22;;;;;;;50.47;32.67;;;10.80;99.90;;;;;;4977711;28;20128;-78
2022/11/11 08:06:47;;;;;;;49.93;31.10;;;10.90;99.90;;;;;;4947532;28;20050;-78
2022/11/11 08:09:13;;;;;;;53.90;31.17;;;10.90;99.90;;;;;;4962398;28;20042;-80
2022/11/11 08:14:23;;;;;;;51.80;32.07;;;10.90;99.90;;;;;;4946933;28;20972;-80
2022/11/11 08:16:48;;;;;;;47.10;30.77;;;10.80;99.90;;;;;;4936632;28;20422;-78
2022/11/11 08:19:14;;;;;;;45.20;30.92;;;10.90;99.90;;;;;;4950791;28;20053;-81
2022/11/11 08:21:40;;;;;;;50.23;30.40;;;10.90;99.90;;;;;;4954953;28;20112;-78
2022/11/11 08:24:07;;;;;;;50.33;30.43;;;10.90;99.90;;;;;;4954058;28;20052;-80
2022/11/11 08:26:33;;;;;;;50.15;30.67;;;10.90;99.90;;;;;;4941014;28;20714;-81
2022/11/11 08:28:59;;;;;;;48.30;30.60;;;10.90;99.90;;;;;;4952402;28;20073;-78
2022/11/11 08:31:25;;;;;;;47.37;31.00;;;10.90;99.90;;;;;;4952931;28;20057;-80
2022/11/11 08:33:51;;;;;;;51.77;31.43;;;10.90;99.90;;;;;;4953807;28;20536;-78
2022/11/11 08:36:16;;;;;;;44.45;30.73;;;10.90;99.90;;;;;;4931327;28;21298;-81
2022/11/11 08:38:42;;;;;;;48.40;31.85;;;10.90;99.90;;;;;;4951378;28;20740;-78
2022/11/11 08:41:09;;;;;;;48.05;32.88;;;10.80;99.90;;;;;;4954377;28;20380;-78
2022/11/11 08:43:35;;;;;;;51.78;32.83;;;10.80;99.90;;;;;;4952568;28;20289;-81
2022/11/11 08:46:03;;;;;;;47.70;31.50;;;10.90;99.90;;;;;;4957717;28;20117;-81
2022/11/11 08:48:30;;;;;;;47.83;33.00;;;10.90;99.90;;;;;;4938685;28;20043;-79
2022/11/11 08:50:56;;;;;;;48.87;29.93;;;10.80;99.90;;;;;;4952329;28;20398;-78
2022/11/11 08:53:22;;;;;;;48.28;31.17;;;10.90;99.90;;;;;;4952536;28;20534;-80
2022/11/11 08:55:47;;;;;;;49.63;30.73;;;10.90;99.90;;;;;;4952869;28;20125;-79
2022/11/11 08:58:13;;;;;;;49.10;32.72;;;10.90;99.90;;;;;;4937879;28;20156;-81
2022/11/11 09:00:39;;;;;;;55.50;33.05;;;10.90;99.90;;;;;;4955495;28;20038;-78
2022/11/11 09:03:11;;;;;;;46.63;31.90;;;10.90;99.90;;;;;;4953449;28;20055;-80
2022/11/11 09:05:38;;;;;;;45.25;31.08;;;10.80;99.90;;;;;;4953443;28;20511;-79
2022/11/11 09:08:06;;;;;;;50.87;31.90;;;10.80;99.90;;;;;;4936552;28;20055;-80
2022/11/11 09:10:33;;;;;;;50.37;32.50;;;10.80;99.90;;;;;;4953663;28;20059;-81
2022/11/11 09:12:59;;;;;;;49.03;32.83;;;10.80;99.90;;;;;;4951941;28;20134;-78
2022/11/11 09:15:26;;;;;;;47.50;32.07;;;10.90;99.90;;;;;;4953354;28;20062;-79
2022/11/11 09:17:52;;;;;;;51.90;33.93;;;10.80;99.90;;;;;;4936097;28;20094;-78
2022/11/11 09:20:18;;;;;;;55.03;33.43;;;10.80;99.90;;;;;;4955437;28;20051;-79
2022/11/11 09:22:46;;;;;;;52.43;34.70;;;10.80;99.90;;;;;;4963895;28;20544;-78
2022/11/11 09:25:12;;;;;;;54.42;33.28;;;10.80;99.90;;;;;;4936281;28;20149;-78
2022/11/11 09:27:38;;;;;;;53.07;33.07;;;10.80;99.90;;;;;;4938025;28;20640;-81
2022/11/11 09:30:05;;;;;;;48.67;32.37;;;10.80;99.90;;;;;;4970834;28;20568;-79
2022/11/11 09:32:31;;;;;;;46.77;30.87;;;10.70;99.90;;;;;;4948875;28;20498;-79
2022/11/11 09:34:57;;;;;;;53.90;34.97;;;10.70;99.90;;;;;;4959653;28;20432;-81
2022/11/11 09:37:23;;;;;;;53.80;33.20;;;10.70;99.90;;;;;;4943768;28;20047;-79
2022/11/11 09:39:49;;;;;;;55.63;33.90;;;10.70;99.90;;;;;;4957137;28;20535;-78
2022/11/11 09:42:37;;;;;;;51.30;34.13;;;10.70;99.90;;;;;;4951135;28;20050;-79
2022/11/11 09:45:18;;;;;;;51.83;32.43;;;10.60;99.90;;;;;;4952251;28;20113;-79
2022/11/11 09:48:03;;;;;;;56.58;34.03;;;10.60;99.90;;;;;;4935283;28;20489;-81
2022/11/11 09:50:32;;;;;;;49.00;32.47;;;10.70;99.90;;;;;;4951331;28;20130;-78
2022/11/11 09:53:12;;;;;;;54.27;33.23;;;10.60;99.90;;;;;;4952520;28;20426;-78
2022/11/11 09:55:46;;;;;;;47.63;32.13;;;10.60;99.90;;;;;;4954263;28;20054;-79
2022/11/11 09:58:34;;;;;;;50.30;32.50;;;10.60;99.90;;;;;;4920281;28;20477;-78
2022/11/11 10:01:12;;;;;;;52.40;30.60;;;10.60;99.90;;;;;;4950950;28;20046;-78
2022/11/11 10:03:44;;;;;;;50.43;33.67;;;10.60;99.90;;;;;;4950891;28;20054;-79
2022/11/11 10:06:29;;;;;;;52.53;33.20;;;10.60;99.90;;;;;;4945729;28;20416;-82
2022/11/11 10:09:03;;;;;;;56.43;35.23;;;10.60;99.90;;;;;;4947643;28;20523;-78
2022/11/11 10:12:01;;;;;;;54.70;34.40;;;10.60;99.90;;;;;;4951710;28;20073;-81
2022/11/11 10:14:35;;;;;;;56.93;34.40;;;10.60;99.90;;;;;;4952270;28;20058;-78
2022/11/11 10:17:23;;;;;;;55.20;33.90;;;10.60;99.90;;;;;;4939115;28;20063;-78
2022/11/11 10:20:01;;;;;;;53.00;32.33;;;10.60;99.90;;;;;;4966455;28;20149;-79
2022/11/11 10:22:30;;;;;;;49.70;31.80;;;10.60;99.90;;;;;;4935447;28;20062;-78
2022/11/11 10:25:12;;;;;;;47.43;31.57;;;10.60;99.90;;;;;;4959351;28;20050;-81
2022/11/11 10:27:43;;;;;;;47.90;30.42;;;10.70;99.90;;;;;;4934021;28;20077;-78
2022/11/11 10:30:21;;;;;;;46.55;30.30;;;10.70;99.90;;;;;;4950762;28;20085;-79
2022/11/11 10:33:03;;;;;;;45.22;31.50;;;10.70;99.90;;;;;;4967309;28;20499;-79
2022/11/11 10:35:32;;;;;;;43.42;30.30;;;10.80;99.90;;;;;;4960548;28;20649;-78
2022/11/11 10:38:46;;;;;;;47.50;30.03;;;10.80;99.90;;;;;;4921243;28;20748;-80
2022/11/11 10:41:43;;;;;;;46.33;28.70;;;10.90;99.90;;;;;;4895851;29;20356;-79
2022/11/11 10:44:22;;;;;;;44.75;28.95;;;10.90;99.90;;;;;;4968026;28;20058;-78
2022/11/11 10:47:23;;;;;;;45.20;30.10;;;10.90;99.90;;;;;;4951912;28;20141;-78
2022/11/11 10:50:05;;;;;;;45.15;29.83;;;10.90;99.90;;;;;;4916788;28;20062;-79
2022/11/11 10:52:52;;;;;;;40.43;28.13;;;10.90;99.90;;;;;;4952842;28;20102;-80
2022/11/11 10:55:24;;;;;;;44.27;28.93;;;10.90;99.90;;;;;;4959798;28;20595;-78
2022/11/11 10:58:01;;;;;;;41.40;29.03;;;10.90;99.90;;;;;;4933344;28;20050;-79
2022/11/11 11:00:27;;;;;;;42.55;28.08;;;11.10;99.90;;;;;;4969839;28;20149;-77
2022/11/11 11:03:22;;;;;;;44.20;28.50;;;10.90;99.90;;;;;;4964882;28;20054;-81
2022/11/11 11:06:05;;;;;;;42.10;28.70;;;11.00;99.90;;;;;;4969989;28;20058;-78
2022/11/11 11:08:39;;;;;;;40.45;26.65;;;11.00;99.90;;;;;;4953484;28;20046;-81
2022/11/11 11:11:28;;;;;;;38.40;27.42;;;11.00;99.90;;;;;;4954706;28;20093;-79
2022/11/11 11:14:01;;;;;;;38.33;26.92;;;11.00;99.90;;;;;;4962502;28;20050;-79
2022/11/11 11:16:38;;;;;;;35.73;25.90;;;11.00;99.90;;;;;;4938997;28;20509;-82
2022/11/11 11:19:14;;;;;;;36.88;27.00;;;11.00;99.90;;;;;;4948195;28;20390;-79
2022/11/11 11:21:58;;;;;;;37.40;26.20;;;11.00;99.90;;;;;;4949898;28;20548;-79
2022/11/11 11:24:31;;;;;;;38.70;27.92;;;11.00;99.90;;;;;;4937327;28;20074;-82
2022/11/11 11:26:59;;;;;;;35.97;26.23;;;11.00;99.90;;;;;;4924242;28;20046;-80
2022/11/11 11:29:37;;;;;;;39.80;25.95;;;11.00;99.90;;;;;;4957087;28;20074;-79
2022/11/11 11:32:15;;;;;;;38.47;25.33;;;11.00;99.90;;;;;;4965769;28;20424;-80
2022/11/11 11:34:43;;;;;;;35.60;25.88;;;11.00;99.90;;;;;;4939760;28;20505;-80
2022/11/11 11:37:09;;;;;;;39.27;25.57;;;11.00;99.90;;;;;;4944142;28;20061;-80
2022/11/11 11:39:37;;;;;;;36.25;24.65;;;11.00;99.90;;;;;;4965664;28;20055;-78
2022/11/11 11:42:03;;;;;;;35.55;24.17;;;10.90;99.90;;;;;;4949038;28;20493;-81
2022/11/11 11:44:34;;;;;;;36.38;23.38;;;11.00;99.90;;;;;;4950408;28;20062;-80
2022/11/11 11:47:02;;;;;;;37.33;25.38;;;11.10;99.90;;;;;;4936952;28;20054;-79
2022/11/11 11:49:38;;;;;;;31.60;23.42;;;11.00;99.90;;;;;;4967379;28;20568;-79
2022/11/11 11:52:42;;;;;;;31.95;23.13;;;11.00;99.90;;;;;;4957303;28;20066;-79
2022/11/11 11:55:17;;;;;;;32.63;23.87;;;11.10;99.90;;;;;;4917365;28;20088;-79
2022/11/11 11:57:51;;;;;;;31.67;23.58;;;11.00;99.90;;;;;;4955950;28;20038;-78
2022/11/11 12:00:27;;;;;;;33.97;23.80;;;11.00;99.90;;;;;;4960730;28;20058;-80
2022/11/11 12:03:21;;;;;;;33.55;25.13;;;11.10;99.90;;;;;;4966431;28;20137;-81
2022/11/11 12:06:02;;;;;;;36.67;24.10;;;11.00;99.90;;;;;;4953978;28;20074;-79
2022/11/11 12:09:00;;;;;;;32.25;23.02;;;11.10;99.90;;;;;;4940423;28;20081;-81
2022/11/11 12:11:38;;;;;;;30.75;21.90;;;11.10;99.90;;;;;;4955917;28;20046;-79
2022/11/11 12:14:30;;;;;;;31.27;21.77;;;11.00;99.90;;;;;;4954990;28;20058;-78
2022/11/11 12:17:15;;;;;;;26.80;21.23;;;11.00;99.90;;;;;;4938438;28;20363;-81
2022/11/11 12:20:01;;;;;;;34.07;22.33;;;11.00;99.90;;;;;;4935098;28;20051;-79
2022/11/11 12:23:01;;;;;;;29.60;23.23;;;11.00;99.90;;;;;;4971348;28;20054;-78
2022/11/11 12:25:47;;;;;;;34.88;23.33;;;11.00;99.90;;;;;;4965646;28;20250;-78
2022/11/11 12:28:32;;;;;;;31.00;21.42;;;11.00;99.90;;;;;;4939210;28;20509;-78
2022/11/11 12:31:12;;;;;;;29.92;21.27;;;11.00;99.90;;;;;;4961297;28;21085;-78
2022/11/11 12:33:56;;;;;;;31.20;21.03;;;11.00;99.90;;;;;;4943622;28;20597;-80
2022/11/11 12:36:39;;;;;;;33.53;23.35;;;11.00;99.90;;;;;;4936961;28;20058;-82
2022/11/11 12:39:15;;;;;;;32.87;21.57;;;11.00;99.90;;;;;;4966648;28;20062;-80
2022/11/11 12:42:07;;;;;;;33.90;23.03;;;11.00;99.90;;;;;;4951058;28;20050;-79
2022/11/11 12:44:48;;;;;;;33.07;23.27;;;11.00;99.90;;;;;;4954715;28;20062;-78
2022/11/11 12:47:38;;;;;;;34.53;22.97;;;11.00;99.90;;;;;;4946117;28;20419;-77
2022/11/11 12:50:10;;;;;;;34.88;24.20;;;11.00;99.90;;;;;;4953747;28;20054;-79
2022/11/11 12:53:06;;;;;;;34.25;23.60;;;10.90;99.90;;;;;;4957264;28;20503;-78
2022/11/11 12:55:42;;;;;;;35.53;24.25;;;10.90;99.90;;;;;;4952362;28;20065;-79
2022/11/11 12:58:18;;;;;;;33.90;24.42;;;10.90;99.90;;;;;;4943079;28;20061;-78
2022/11/11 13:01:21;;;;;;;33.90;24.40;;;10.90;99.90;;;;;;4955535;28;20054;-78
2022/11/11 13:04:08;;;;;;;32.05;24.65;;;10.80;99.90;;;;;;4933464;28;20473;-81
2022/11/11 13:06:52;;;;;;;34.35;24.92;;;10.80;99.90;;;;;;4934127;28;20385;-80
2022/11/11 13:09:36;;;;;;;34.80;24.05;;;10.80;99.90;;;;;;4954212;28;20094;-77
2022/11/11 13:12:25;;;;;;;38.03;24.80;;;10.80;99.90;;;;;;4952179;28;20059;-80
2022/11/11 13:15:00;;;;;;;38.47;26.47;;;10.80;99.90;;;;;;4961713;28;20086;-78
2022/11/11 13:17:25;;;;;;;35.37;25.90;;;10.80;99.90;;;;;;4934568;28;20105;-78
2022/11/11 13:19:58;;;;;;;37.60;25.50;;;10.80;99.90;;;;;;4959099;28;20069;-80
2022/11/11 13:22:28;;;;;;;37.67;25.85;;;10.80;99.90;;;;;;4965921;28;20050;-81
2022/11/11 13:24:55;;;;;;;37.08;25.55;;;10.80;99.90;;;;;;4950064;28;21452;-80
2022/11/11 13:27:31;;;;;;;39.17;26.87;;;10.70;99.90;;;;;;4948008;28;20049;-77
2022/11/11 13:30:21;;;;;;;39.37;27.00;;;10.80;99.90;;;;;;4963398;28;20702;-79
2022/11/11 13:33:21;;;;;;;41.43;28.33;;;10.70;99.90;;;;;;4958860;28;20058;-80
2022/11/11 13:35:55;;;;;;;43.67;29.60;;;10.70;99.90;;;;;;4962855;28;20865;-80
2022/11/11 13:38:34;;;;;;;40.40;29.05;;;10.70;99.90;;;;;;4939944;28;20512;-80
2022/11/11 13:41:05;;;;;;;46.60;29.08;;;10.70;99.90;;;;;;4955223;28;21375;-78
2022/11/11 13:43:40;;;;;;;42.83;28.60;;;10.70;99.90;;;;;;4965694;28;20518;-77
2022/11/11 13:46:11;;;;;;;42.03;28.00;;;10.70;99.90;;;;;;4952666;28;20056;-81
2022/11/11 13:48:46;;;;;;;42.88;28.25;;;10.70;99.90;;;;;;4946758;28;20779;-78
2022/11/11 13:51:41;;;;;;;43.33;29.70;;;10.60;99.90;;;;;;4963380;28;20093;-79
2022/11/11 13:54:28;;;;;;;42.67;29.02;;;10.70;99.90;;;;;;4968146;28;20436;-77
2022/11/11 13:57:13;;;;;;;38.45;26.50;;;10.70;99.90;;;;;;4943037;28;20068;-78
2022/11/11 13:59:42;;;;;;;38.35;26.35;;;10.70;99.90;;;;;;4963858;28;20558;-80
2022/11/11 14:02:17;;;;;;;36.97;25.95;;;10.80;99.90;;;;;;4952212;28;20050;-77
2022/11/11 14:05:05;;;;;;;39.92;26.98;;;10.80;99.90;;;;;;4961333;28;20134;-80